Time;durP1;ratioP1;P1;durP2;ratioP2;P2;SDS_P1;SDS_P2;PMS_P1;PMS_P2;Temp;Humidity;BMP_temperature;BMP_pressure;BME280_temperature;BME280_humidity;BME280_pressure;Samples;Min_cycle;Max_cycle;Signal;HPM_P1;HPM_P2
2022/10/13 00:04:17;;;;;;;19.00;13.18;;;;;;;;;;12972548;22;20381;-89
2022/10/13 00:09:19;;;;;;;18.13;12.73;;;;;;;;;;12970415;22;20771;-90
2022/10/13 00:14:22;;;;;;;20.15;12.05;;;;;;;;;;12971062;22;20672;-90
2022/10/13 00:19:24;;;;;;;17.43;12.20;;;;;;;;;;12971675;22;20371;-91
2022/10/13 00:24:26;;;;;;;15.50;11.80;;;;;;;;;;12972249;22;20382;-91
2022/10/13 00:29:29;;;;;;;18.65;11.45;;;;;;;;;;12969021;22;20469;-91
2022/10/13 00:34:31;;;;;;;17.98;11.80;;;;;;;;;;12969027;22;20358;-89
2022/10/13 00:39:33;;;;;;;20.33;12.30;;;;;;;;;;12970726;22;21320;-89
2022/10/13 00:45:05;;;;;;;16.83;11.45;;;;;;;;;;12971167;22;20881;-92
2022/10/13 00:50:10;;;;;;;15.35;11.23;;;;;;;;;;12902354;22;20466;-90
2022/10/13 00:55:16;;;;;;;19.10;11.20;;;;;;;;;;12971306;22;20854;-91
2022/10/13 01:00:20;;;;;;;16.97;11.43;;;;;;;;;;12971685;22;20370;-89
2022/10/13 01:05:24;;;;;;;14.18;10.85;;;;;;;;;;12971818;22;20358;-90
2022/10/13 01:10:35;;;;;;;17.38;11.02;;;;;;;;;;12970715;22;20386;-91
2022/10/13 01:15:44;;;;;;;16.70;10.30;;;;;;;;;;12971093;22;20391;-89
2022/10/13 01:21:06;;;;;;;15.80;10.77;;;;;;;;;;12967565;22;20363;-90
2022/10/13 01:26:31;;;;;;;15.80;11.25;;;;;;;;;;12969162;22;20687;-90
2022/10/13 01:31:40;;;;;;;14.75;10.20;;;;;;;;;;12969531;22;20386;-89
2022/10/13 01:36:51;;;;;;;13.50;10.30;;;;;;;;;;12969404;22;20393;-89
2022/10/13 01:42:01;;;;;;;12.60;9.50;;;;;;;;;;12970212;22;20366;-89
2022/10/13 01:47:06;;;;;;;14.77;9.73;;;;;;;;;;12970044;22;20440;-89
2022/10/13 01:52:13;;;;;;;14.23;9.23;;;;;;;;;;12970221;22;20401;-90
2022/10/13 01:57:31;;;;;;;14.02;9.07;;;;;;;;;;12970643;22;20393;-89
2022/10/13 02:02:39;;;;;;;13.40;9.10;;;;;;;;;;12971457;22;20385;-87
2022/10/13 02:07:46;;;;;;;18.88;9.05;;;;;;;;;;12970669;22;20437;-88
2022/10/13 02:12:53;;;;;;;13.95;9.15;;;;;;;;;;12970599;22;20362;-90
2022/10/13 02:17:56;;;;;;;15.05;9.70;;;;;;;;;;12974292;22;20359;-90
2022/10/13 02:23:04;;;;;;;16.88;10.30;;;;;;;;;;12974309;22;20849;-90
2022/10/13 02:28:06;;;;;;;18.15;10.02;;;;;;;;;;12974391;22;20763;-88
2022/10/13 02:33:10;;;;;;;17.08;10.48;;;;;;;;;;12945677;22;20358;-88
2022/10/13 02:38:12;;;;;;;12.50;9.53;;;;;;;;;;12972102;22;20830;-89
2022/10/13 02:43:14;;;;;;;14.43;10.10;;;;;;;;;;12972998;22;20378;-88
2022/10/13 02:48:17;;;;;;;13.75;9.60;;;;;;;;;;12972127;22;20382;-87
2022/10/13 02:53:19;;;;;;;14.93;9.38;;;;;;;;;;12972005;22;20373;-88
2022/10/13 02:58:21;;;;;;;14.80;9.32;;;;;;;;;;12972996;22;20366;-88
2022/10/13 03:03:24;;;;;;;16.37;9.37;;;;;;;;;;12972676;22;20394;-88
2022/10/13 03:08:26;;;;;;;13.63;8.68;;;;;;;;;;12983882;22;20383;-88
2022/10/13 03:13:28;;;;;;;14.60;9.43;;;;;;;;;;12972169;22;20383;-87
2022/10/13 03:18:31;;;;;;;13.60;9.27;;;;;;;;;;12971423;22;20938;-88
2022/10/13 03:23:33;;;;;;;13.53;8.83;;;;;;;;;;12972013;22;20366;-88
2022/10/13 03:28:35;;;;;;;10.80;8.55;;;;;;;;;;12970705;22;20638;-88
2022/10/13 03:33:39;;;;;;;13.13;8.83;;;;;;;;;;12971747;22;20480;-88
2022/10/13 03:38:41;;;;;;;13.87;9.17;;;;;;;;;;12971685;22;20358;-87
2022/10/13 03:43:44;;;;;;;15.27;9.20;;;;;;;;;;12970767;22;20366;-87
2022/10/13 03:48:48;;;;;;;14.50;8.70;;;;;;;;;;12971520;22;20571;-88
2022/10/13 03:53:51;;;;;;;12.50;8.37;;;;;;;;;;12971127;22;20405;-87
2022/10/13 03:58:54;;;;;;;12.85;8.35;;;;;;;;;;12971552;22;20382;-88
2022/10/13 04:03:58;;;;;;;13.97;8.47;;;;;;;;;;12971275;22;20366;-88
2022/10/13 04:09:00;;;;;;;11.57;8.40;;;;;;;;;;12969953;22;20406;-87
2022/10/13 04:14:02;;;;;;;12.38;8.95;;;;;;;;;;12971770;22;20393;-87
2022/10/13 04:19:08;;;;;;;14.37;8.57;;;;;;;;;;12968650;22;22851;-88
2022/10/13 04:24:12;;;;;;;14.47;8.87;;;;;;;;;;12971062;22;20362;-87
2022/10/13 04:29:16;;;;;;;15.00;8.83;;;;;;;;;;12969400;22;20382;-88
2022/10/13 04:34:20;;;;;;;14.07;9.25;;;;;;;;;;12969891;22;20380;-88
2022/10/13 04:39:21;;;;;;;16.83;9.48;;;;;;;;;;12969393;22;20363;-88
2022/10/13 04:44:24;;;;;;;14.80;9.10;;;;;;;;;;12969916;22;20637;-87
2022/10/13 04:49:27;;;;;;;14.20;8.95;;;;;;;;;;12970304;22;20409;-88
2022/10/13 04:54:29;;;;;;;12.85;8.90;;;;;;;;;;12970007;22;20444;-88
2022/10/13 04:59:31;;;;;;;15.20;9.73;;;;;;;;;;12970376;22;20391;-88
2022/10/13 05:04:35;;;;;;;11.77;9.30;;;;;;;;;;12969409;22;20420;-88
2022/10/13 05:09:36;;;;;;;15.70;9.80;;;;;;;;;;12968380;22;20908;-88
2022/10/13 05:14:38;;;;;;;15.25;9.65;;;;;;;;;;12968749;22;20390;-88
2022/10/13 05:19:42;;;;;;;19.15;9.70;;;;;;;;;;12970180;22;20363;-88
2022/10/13 05:24:43;;;;;;;15.00;10.00;;;;;;;;;;12971131;22;20362;-88
2022/10/13 05:29:45;;;;;;;14.75;9.48;;;;;;;;;;12969645;22;20374;-87
2022/10/13 05:34:49;;;;;;;16.48;10.57;;;;;;;;;;12970623;22;20449;-86
2022/10/13 05:39:51;;;;;;;13.88;9.60;;;;;;;;;;12969461;22;20370;-87
2022/10/13 05:44:53;;;;;;;17.33;10.03;;;;;;;;;;12955278;22;20386;-87
2022/10/13 05:49:56;;;;;;;17.23;10.00;;;;;;;;;;12968015;22;20905;-86
2022/10/13 05:55:02;;;;;;;17.02;11.48;;;;;;;;;;12973316;22;20358;-87
2022/10/13 06:00:07;;;;;;;21.10;10.30;;;;;;;;;;12975685;22;20404;-86
2022/10/13 06:05:14;;;;;;;15.10;10.38;;;;;;;;;;12970527;22;20366;-87
2022/10/13 06:10:16;;;;;;;15.98;10.23;;;;;;;;;;12975626;22;20393;-87
2022/10/13 06:15:18;;;;;;;16.83;10.40;;;;;;;;;;12975482;22;20366;-86
2022/10/13 06:20:21;;;;;;;16.85;11.07;;;;;;;;;;12974658;22;20378;-86
2022/10/13 06:25:23;;;;;;;18.77;10.52;;;;;;;;;;12968028;22;20412;-86
2022/10/13 06:30:25;;;;;;;17.05;10.13;;;;;;;;;;12976341;22;20389;-86
2022/10/13 06:35:28;;;;;;;18.63;10.13;;;;;;;;;;12978014;22;20854;-86
2022/10/13 06:40:30;;;;;;;17.30;10.15;;;;;;;;;;12976476;22;20393;-86
2022/10/13 06:45:32;;;;;;;14.53;9.93;;;;;;;;;;12976725;22;20363;-79
2022/10/13 06:50:35;;;;;;;14.15;9.35;;;;;;;;;;12977577;22;20469;-79
2022/10/13 06:55:36;;;;;;;13.45;9.27;;;;;;;;;;12974853;22;20382;-79
2022/10/13 07:00:41;;;;;;;16.45;9.52;;;;;;;;;;12974128;22;20414;-79
2022/10/13 07:05:44;;;;;;;13.48;9.43;;;;;;;;;;12970926;22;20429;-79
2022/10/13 07:10:46;;;;;;;15.90;9.68;;;;;;;;;;12972995;22;20461;-79
2022/10/13 07:15:48;;;;;;;16.80;9.35;;;;;;;;;;12972034;22;20398;-79
2022/10/13 07:20:51;;;;;;;16.20;8.68;;;;;;;;;;12971386;22;20358;-79
2022/10/13 07:25:55;;;;;;;14.57;9.13;;;;;;;;;;12965477;22;20361;-79
2022/10/13 07:30:57;;;;;;;16.33;9.37;;;;;;;;;;12965112;22;20410;-78
2022/10/13 07:36:00;;;;;;;13.10;8.68;;;;;;;;;;12969047;22;20761;-79
2022/10/13 07:41:02;;;;;;;13.32;8.57;;;;;;;;;;12964799;22;20358;-79
2022/10/13 07:46:05;;;;;;;12.93;8.75;;;;;;;;;;12965618;22;20742;-79
2022/10/13 07:51:10;;;;;;;11.90;8.13;;;;;;;;;;12971754;22;20410;-79
2022/10/13 07:56:14;;;;;;;10.05;7.68;;;;;;;;;;12968467;22;20362;-79
2022/10/13 08:01:17;;;;;;;12.23;7.63;;;;;;;;;;12970679;22;20386;-79
2022/10/13 08:06:20;;;;;;;11.20;7.72;;;;;;;;;;12973686;22;20738;-90
2022/10/13 08:11:22;;;;;;;11.35;7.40;;;;;;;;;;12980441;22;20375;-91
2022/10/13 08:16:24;;;;;;;13.25;7.35;;;;;;;;;;12977754;22;20396;-91
2022/10/13 08:21:29;;;;;;;12.55;7.75;;;;;;;;;;12978348;22;20393;-91
2022/10/13 08:26:31;;;;;;;13.32;7.75;;;;;;;;;;12951935;22;20416;-91
2022/10/13 08:31:33;;;;;;;11.82;7.88;;;;;;;;;;12915467;23;20446;-91
2022/10/13 08:36:37;;;;;;;10.63;7.68;;;;;;;;;;12915235;23;20391;-91
2022/10/13 08:41:42;;;;;;;9.82;7.20;;;;;;;;;;12889373;23;20368;-91
2022/10/13 08:46:51;;;;;;;11.52;6.72;;;;;;;;;;12914439;23;20836;-89
2022/10/13 08:51:55;;;;;;;9.70;6.43;;;;;;;;;;12914061;23;20453;-91
2022/10/13 08:56:57;;;;;;;11.48;6.80;;;;;;;;;;12913875;22;20390;-92
2022/10/13 09:02:00;;;;;;;9.68;6.70;;;;;;;;;;12914150;22;20392;-91
2022/10/13 09:07:10;;;;;;;10.50;6.93;;;;;;;;;;12913769;22;20372;-91
2022/10/13 09:12:14;;;;;;;25.40;8.50;;;;;;;;;;12913492;23;20380;-91
2022/10/13 09:17:19;;;;;;;10.60;7.20;;;;;;;;;;12883127;23;20365;-90
2022/10/13 09:22:25;;;;;;;10.63;7.45;;;;;;;;;;12913120;22;20357;-91
2022/10/13 09:27:26;;;;;;;11.48;7.63;;;;;;;;;;12922180;22;20370;-92
2022/10/13 09:32:35;;;;;;;10.77;7.50;;;;;;;;;;12972890;22;20451;-93
2022/10/13 09:37:40;;;;;;;12.07;7.50;;;;;;;;;;12978539;22;20366;-93
2022/10/13 09:42:50;;;;;;;14.38;8.18;;;;;;;;;;12978712;22;20370;-93
2022/10/13 09:47:55;;;;;;;13.02;7.57;;;;;;;;;;12978167;22;20366;-91
2022/10/13 09:53:20;;;;;;;12.50;7.63;;;;;;;;;;12978981;22;20369;-92
2022/10/13 09:58:27;;;;;;;13.85;7.75;;;;;;;;;;12982473;22;20408;-92
2022/10/13 10:03:33;;;;;;;15.35;7.75;;;;;;;;;;12978311;22;20807;-89
2022/10/13 10:08:45;;;;;;;9.90;7.53;;;;;;;;;;12975988;22;20400;-89
2022/10/13 10:13:47;;;;;;;10.70;7.70;;;;;;;;;;12973599;22;20374;-89
2022/10/13 10:18:53;;;;;;;13.50;8.45;;;;;;;;;;12972505;22;20434;-88
2022/10/13 10:24:02;;;;;;;9.83;7.87;;;;;;;;;;12970575;22;20355;-89
2022/10/13 10:29:22;;;;;;;10.80;7.57;;;;;;;;;;12968623;22;20489;-88
2022/10/13 10:34:34;;;;;;;13.40;7.47;;;;;;;;;;12967425;22;20472;-88
2022/10/13 10:39:46;;;;;;;13.00;7.77;;;;;;;;;;12972236;22;20382;-89
2022/10/13 10:44:51;;;;;;;11.15;7.65;;;;;;;;;;12974658;22;20401;-89
2022/10/13 10:50:00;;;;;;;14.75;7.90;;;;;;;;;;12973540;22;20409;-89
2022/10/13 10:55:15;;;;;;;10.67;7.47;;;;;;;;;;12972176;22;20854;-90
2022/10/13 11:00:20;;;;;;;10.13;6.53;;;;;;;;;;12974413;22;20387;-88
2022/10/13 11:05:23;;;;;;;10.20;6.73;;;;;;;;;;12973359;22;20369;-89
2022/10/13 11:10:27;;;;;;;9.75;7.15;;;;;;;;;;12973272;22;20386;-89
2022/10/13 11:15:40;;;;;;;13.68;7.55;;;;;;;;;;12964649;22;20385;-89
2022/10/13 11:20:58;;;;;;;12.02;6.70;;;;;;;;;;12964297;22;20374;-89
2022/10/13 11:26:40;;;;;;;12.75;6.85;;;;;;;;;;12964967;22;20375;-88
2022/10/13 11:31:52;;;;;;;12.00;6.25;;;;;;;;;;12967180;22;20386;-85
2022/10/13 11:36:56;;;;;;;13.73;7.13;;;;;;;;;;12965511;22;20809;-89
2022/10/13 11:42:11;;;;;;;8.03;6.57;;;;;;;;;;12967225;22;20374;-89
2022/10/13 11:47:28;;;;;;;8.33;6.23;;;;;;;;;;12968690;22;20377;-89
2022/10/13 11:52:51;;;;;;;12.00;7.45;;;;;;;;;;12968365;22;20410;-89
2022/10/13 11:58:08;;;;;;;11.17;6.50;;;;;;;;;;12970133;22;20378;-88
2022/10/13 12:03:20;;;;;;;9.38;6.03;;;;;;;;;;12967113;22;20380;-87
2022/10/13 12:08:22;;;;;;;10.93;6.07;;;;;;;;;;12972246;22;20366;-88
2022/10/13 12:13:28;;;;;;;13.17;7.00;;;;;;;;;;12971291;22;20389;-87
2022/10/13 12:18:33;;;;;;;9.93;7.30;;;;;;;;;;12970356;22;20367;-88
2022/10/13 12:23:34;;;;;;;8.73;6.25;;;;;;;;;;12971488;22;20449;-88
2022/10/13 12:28:49;;;;;;;10.10;7.10;;;;;;;;;;12967267;22;20402;-90
2022/10/13 12:33:56;;;;;;;9.83;6.80;;;;;;;;;;12958563;22;20369;-88
2022/10/13 12:39:03;;;;;;;11.17;7.03;;;;;;;;;;12957206;22;20447;-88
2022/10/13 12:44:13;;;;;;;10.63;7.10;;;;;;;;;;12959925;22;20386;-88
2022/10/13 12:49:17;;;;;;;9.77;7.10;;;;;;;;;;12960738;22;20706;-88
2022/10/13 12:54:22;;;;;;;23.15;6.95;;;;;;;;;;12965372;22;20777;-87
2022/10/13 12:59:27;;;;;;;9.80;7.43;;;;;;;;;;12959217;22;20390;-88
2022/10/13 13:04:41;;;;;;;11.17;7.70;;;;;;;;;;12959246;22;20362;-87
2022/10/13 13:09:43;;;;;;;13.00;7.22;;;;;;;;;;12958295;22;20417;-87
2022/10/13 13:14:48;;;;;;;11.38;7.93;;;;;;;;;;12960751;22;20434;-89
2022/10/13 13:19:52;;;;;;;12.95;6.90;;;;;;;;;;12961080;22;20446;-87
2022/10/13 13:24:53;;;;;;;13.68;7.78;;;;;;;;;;12961879;22;20383;-88
2022/10/13 13:29:57;;;;;;;8.97;6.40;;;;;;;;;;12960116;22;20461;-88
2022/10/13 13:34:58;;;;;;;11.55;7.90;;;;;;;;;;12962706;22;20371;-90
2022/10/13 13:40:01;;;;;;;9.50;6.47;;;;;;;;;;12963174;22;21224;-87
2022/10/13 13:45:05;;;;;;;10.67;7.33;;;;;;;;;;12957134;22;20381;-87
2022/10/13 13:50:14;;;;;;;10.57;7.33;;;;;;;;;;12958742;22;20382;-87
2022/10/13 13:55:16;;;;;;;11.53;7.13;;;;;;;;;;12951611;22;20366;-85
2022/10/13 14:00:20;;;;;;;11.35;7.63;;;;;;;;;;12957294;22;21220;-85
2022/10/13 14:05:21;;;;;;;12.17;7.90;;;;;;;;;;12969232;22;20350;-86
2022/10/13 14:10:24;;;;;;;10.15;6.88;;;;;;;;;;12962302;22;20382;-87
2022/10/13 14:15:27;;;;;;;12.90;7.20;;;;;;;;;;12959031;22;20821;-85
2022/10/13 14:20:29;;;;;;;12.38;7.30;;;;;;;;;;12961904;22;20381;-89
2022/10/13 14:25:32;;;;;;;11.63;7.10;;;;;;;;;;12964718;22;21078;-87
2022/10/13 14:30:35;;;;;;;11.13;6.80;;;;;;;;;;12963264;22;20386;-88
2022/10/13 14:35:37;;;;;;;9.60;6.75;;;;;;;;;;12959973;22;21056;-88
2022/10/13 14:40:41;;;;;;;9.07;6.55;;;;;;;;;;12958180;22;20455;-87
2022/10/13 14:45:44;;;;;;;9.95;6.63;;;;;;;;;;12961364;22;20827;-88
2022/10/13 14:50:46;;;;;;;9.68;6.30;;;;;;;;;;12962045;22;20433;-88
2022/10/13 14:55:48;;;;;;;10.13;6.97;;;;;;;;;;12961852;22;21186;-88
2022/10/13 15:00:52;;;;;;;9.85;7.65;;;;;;;;;;12962698;22;20378;-89
2022/10/13 15:05:54;;;;;;;14.20;7.87;;;;;;;;;;12962801;22;20452;-88
2022/10/13 15:10:59;;;;;;;12.83;8.07;;;;;;;;;;12962971;22;20385;-88
2022/10/13 15:16:03;;;;;;;12.00;7.60;;;;;;;;;;12964615;22;20731;-88
2022/10/13 15:21:05;;;;;;;13.50;8.50;;;;;;;;;;12966825;22;20374;-88
2022/10/13 15:26:07;;;;;;;18.83;8.90;;;;;;;;;;12967087;22;20904;-90
2022/10/13 15:31:11;;;;;;;13.48;9.70;;;;;;;;;;12965762;22;20378;-89
2022/10/13 15:36:13;;;;;;;17.45;9.35;;;;;;;;;;12974362;22;20373;-90
2022/10/13 15:41:16;;;;;;;15.87;9.47;;;;;;;;;;12976217;22;20369;-92
2022/10/13 15:46:23;;;;;;;13.60;10.02;;;;;;;;;;12975063;22;20371;-91
2022/10/13 15:51:25;;;;;;;16.17;9.15;;;;;;;;;;12975686;22;20432;-91
2022/10/13 15:56:27;;;;;;;17.27;10.10;;;;;;;;;;12970650;22;20374;-89
2022/10/13 16:01:30;;;;;;;19.77;9.90;;;;;;;;;;12973532;22;20373;-88
2022/10/13 16:06:34;;;;;;;15.07;10.00;;;;;;;;;;12970787;22;20904;-88
2022/10/13 16:11:36;;;;;;;19.27;10.27;;;;;;;;;;12968183;22;20861;-88
2022/10/13 16:16:40;;;;;;;15.43;9.27;;;;;;;;;;12969405;22;20371;-89
2022/10/13 16:21:42;;;;;;;15.73;10.60;;;;;;;;;;12967508;22;20359;-86
2022/10/13 16:26:43;;;;;;;25.53;14.33;;;;;;;;;;12960567;22;20369;-89
2022/10/13 16:31:47;;;;;;;17.30;9.73;;;;;;;;;;12966730;22;20688;-88
2022/10/13 16:36:49;;;;;;;21.80;13.20;;;;;;;;;;12968922;22;20782;-88
2022/10/13 16:41:51;;;;;;;18.90;9.88;;;;;;;;;;12971212;22;20449;-87
2022/10/13 16:46:55;;;;;;;14.43;9.60;;;;;;;;;;12971994;22;20393;-87
2022/10/13 16:51:57;;;;;;;20.38;8.88;;;;;;;;;;12970636;22;20379;-87
2022/10/13 16:56:59;;;;;;;19.58;11.23;;;;;;;;;;12970901;22;20359;-89
2022/10/13 17:02:02;;;;;;;24.58;14.80;;;;;;;;;;12971138;22;20361;-87
2022/10/13 17:07:04;;;;;;;40.70;20.65;;;;;;;;;;12968944;22;20953;-87
2022/10/13 17:12:07;;;;;;;45.15;21.83;;;;;;;;;;12966929;22;20402;-88
2022/10/13 17:17:10;;;;;;;28.88;15.73;;;;;;;;;;12960905;22;20469;-89
2022/10/13 17:22:12;;;;;;;25.25;15.75;;;;;;;;;;12961719;22;20410;-87
2022/10/13 17:27:15;;;;;;;31.13;14.93;;;;;;;;;;12960638;22;20469;-89
2022/10/13 17:32:18;;;;;;;25.35;14.68;;;;;;;;;;12963170;22;20382;-90
2022/10/13 17:37:20;;;;;;;21.90;14.47;;;;;;;;;;12963945;22;20854;-86
2022/10/13 17:42:22;;;;;;;24.87;13.50;;;;;;;;;;12958472;22;20421;-88
2022/10/13 17:47:25;;;;;;;24.67;14.93;;;;;;;;;;12960807;22;20752;-89
2022/10/13 17:52:27;;;;;;;22.65;14.57;;;;;;;;;;12964041;22;20383;-87
2022/10/13 17:57:30;;;;;;;25.97;14.57;;;;;;;;;;12963784;22;20401;-86
2022/10/13 18:02:33;;;;;;;26.17;14.95;;;;;;;;;;12964108;22;20374;-87
2022/10/13 18:07:35;;;;;;;23.27;15.40;;;;;;;;;;12962646;22;20394;-87
2022/10/13 18:12:37;;;;;;;28.27;14.93;;;;;;;;;;12964098;22;20386;-85
2022/10/13 18:17:40;;;;;;;23.00;15.40;;;;;;;;;;12963017;22;20389;-87
2022/10/13 18:22:42;;;;;;;35.92;16.38;;;;;;;;;;12961978;22;20417;-86
2022/10/13 18:27:43;;;;;;;26.92;16.08;;;;;;;;;;12962492;22;20378;-86
2022/10/13 18:32:47;;;;;;;30.05;16.33;;;;;;;;;;12961970;22;20409;-88
2022/10/13 18:37:50;;;;;;;27.65;17.00;;;;;;;;;;12962542;22;20367;-88
2022/10/13 18:42:55;;;;;;;26.90;17.83;;;;;;;;;;12957736;22;20466;-88
2022/10/13 18:47:58;;;;;;;27.63;17.07;;;;;;;;;;12957914;22;20416;-87
2022/10/13 18:53:00;;;;;;;24.67;16.00;;;;;;;;;;12957810;22;20382;-88
2022/10/13 18:58:02;;;;;;;26.83;16.63;;;;;;;;;;12958051;22;20371;-87
2022/10/13 19:03:05;;;;;;;25.03;16.00;;;;;;;;;;12961809;22;20370;-85
2022/10/13 19:08:08;;;;;;;26.40;15.80;;;;;;;;;;12962760;22;21131;-86
2022/10/13 19:13:10;;;;;;;25.80;16.15;;;;;;;;;;12960514;22;20382;-86
2022/10/13 19:18:13;;;;;;;26.73;15.90;;;;;;;;;;12960306;22;20405;-87
2022/10/13 19:23:16;;;;;;;27.15;17.13;;;;;;;;;;12960282;22;20402;-86
2022/10/13 19:28:19;;;;;;;29.87;17.30;;;;;;;;;;12961377;22;20894;-86
2022/10/13 19:33:23;;;;;;;26.42;16.33;;;;;;;;;;12960858;22;20382;-88
2022/10/13 19:38:25;;;;;;;29.97;16.53;;;;;;;;;;12957277;22;20432;-87
2022/10/13 19:43:27;;;;;;;28.27;16.40;;;;;;;;;;12957398;22;20379;-87
2022/10/13 19:48:37;;;;;;;24.63;16.00;;;;;;;;;;12956252;22;20370;-85
2022/10/13 19:53:40;;;;;;;27.37;17.03;;;;;;;;;;12956924;22;20906;-87
2022/10/13 19:58:41;;;;;;;30.63;16.90;;;;;;;;;;12957651;22;20703;-88
2022/10/13 20:03:45;;;;;;;28.60;16.25;;;;;;;;;;12958825;22;20374;-87
2022/10/13 20:08:47;;;;;;;27.65;16.45;;;;;;;;;;12960415;22;20880;-88
2022/10/13 20:13:49;;;;;;;26.38;16.38;;;;;;;;;;12960719;22;20835;-87
2022/10/13 20:18:54;;;;;;;27.57;16.60;;;;;;;;;;12958287;22;20467;-88
2022/10/13 20:23:56;;;;;;;30.57;17.77;;;;;;;;;;12954066;22;20972;-87
2022/10/13 20:28:59;;;;;;;29.27;18.83;;;;;;;;;;12959788;22;20382;-86
2022/10/13 20:34:02;;;;;;;33.80;20.30;;;;;;;;;;12958573;22;20383;-87
2022/10/13 20:39:04;;;;;;;29.37;18.83;;;;;;;;;;12957058;22;20408;-86
2022/10/13 20:44:06;;;;;;;34.97;20.42;;;;;;;;;;12962637;22;20378;-87
2022/10/13 20:49:09;;;;;;;34.50;21.52;;;;;;;;;;12961346;22;20370;-86
2022/10/13 20:54:12;;;;;;;35.35;21.25;;;;;;;;;;12962644;22;20481;-87
2022/10/13 20:59:14;;;;;;;35.20;20.67;;;;;;;;;;12961486;22;20469;-87
2022/10/13 21:04:18;;;;;;;32.40;20.50;;;;;;;;;;12959005;22;20436;-88
2022/10/13 21:09:20;;;;;;;31.58;19.83;;;;;;;;;;12958901;22;20469;-88
2022/10/13 21:14:21;;;;;;;30.33;19.30;;;;;;;;;;12966444;22;20877;-87
2022/10/13 21:19:27;;;;;;;31.57;18.80;;;;;;;;;;12965351;22;20393;-87
2022/10/13 21:24:29;;;;;;;30.23;18.83;;;;;;;;;;12960095;22;20362;-87
2022/10/13 21:29:31;;;;;;;29.02;18.35;;;;;;;;;;12962183;22;20370;-86
2022/10/13 21:34:34;;;;;;;28.73;17.40;;;;;;;;;;12961639;22;20418;-86
2022/10/13 21:39:37;;;;;;;27.27;17.30;;;;;;;;;;12961321;22;20469;-88
2022/10/13 21:44:39;;;;;;;27.80;17.07;;;;;;;;;;12961230;22;20718;-87
2022/10/13 21:49:42;;;;;;;29.97;17.20;;;;;;;;;;12965753;22;20397;-88
2022/10/13 21:54:44;;;;;;;29.33;17.25;;;;;;;;;;12966636;22;20390;-88
2022/10/13 21:59:46;;;;;;;28.38;16.92;;;;;;;;;;12967432;22;20382;-87
2022/10/13 22:04:50;;;;;;;24.15;16.02;;;;;;;;;;12966647;22;20358;-86
2022/10/13 22:09:52;;;;;;;25.33;15.45;;;;;;;;;;12966127;22;20661;-87
2022/10/13 22:14:54;;;;;;;25.77;16.17;;;;;;;;;;12965872;22;20704;-86
2022/10/13 22:19:57;;;;;;;23.27;15.30;;;;;;;;;;12966532;22;20361;-87
2022/10/13 22:24:59;;;;;;;22.30;14.63;;;;;;;;;;12966690;22;20679;-87
2022/10/13 22:30:01;;;;;;;24.45;14.95;;;;;;;;;;12966173;22;20465;-87
2022/10/13 22:35:04;;;;;;;24.05;15.00;;;;;;;;;;12970779;22;20374;-87
2022/10/13 22:40:07;;;;;;;23.33;14.75;;;;;;;;;;12968314;22;20445;-86
2022/10/13 22:45:10;;;;;;;20.80;14.80;;;;;;;;;;12969292;22;20369;-88
2022/10/13 22:50:13;;;;;;;22.48;14.88;;;;;;;;;;12970618;22;20446;-86
2022/10/13 22:55:15;;;;;;;22.73;15.15;;;;;;;;;;12965536;22;20803;-87
2022/10/13 23:00:17;;;;;;;22.92;15.18;;;;;;;;;;12965619;22;20369;-86
2022/10/13 23:05:20;;;;;;;22.25;15.07;;;;;;;;;;12968123;22;20366;-87
2022/10/13 23:10:22;;;;;;;23.47;15.37;;;;;;;;;;12970986;22;20363;-88
2022/10/13 23:15:24;;;;;;;22.63;15.13;;;;;;;;;;12972200;22;20411;-86
2022/10/13 23:20:28;;;;;;;21.50;14.60;;;;;;;;;;12971525;22;20366;-87
2022/10/13 23:25:30;;;;;;;25.10;15.13;;;;;;;;;;12970411;22;20447;-88
2022/10/13 23:30:32;;;;;;;23.03;15.10;;;;;;;;;;12970561;22;20459;-86
2022/10/13 23:35:35;;;;;;;19.93;13.87;;;;;;;;;;12971057;22;20371;-88
2022/10/13 23:40:37;;;;;;;19.00;13.32;;;;;;;;;;12971614;22;20401;-86
2022/10/13 23:45:38;;;;;;;19.67;13.80;;;;;;;;;;12969919;22;20370;-88
2022/10/13 23:50:42;;;;;;;20.02;12.77;;;;;;;;;;12964700;22;20428;-88
2022/10/13 23:55:43;;;;;;;16.63;12.30;;;;;;;;;;12970242;22;20881;-87
